Overview Statistics Trail Chart Weather Telemetry Raw packets
 

This is the latest recevied weather packets stored in our database for station/object DC9VQ-13. If no packets are shown the sender has not sent any weather packets the latest 10 day(s).

<< 30 31 32 33 34 35 36 >>
Time Temp. Humidity Pressure Rain* Wind** Luminosity Snow
1788174961 22.22° C 67% 1015 hPa 0 mm - - -
1788174360 22.22° C 69% 1015.1 hPa 0 mm - - -
1788173757 22.22° C 70% 1015.1 hPa 0 mm - - -
1788173154 21.67° C 70% 1015.1 hPa 0 mm - - -
1788170447 20.56° C 74% 1015.3 hPa 0 mm - - -
1788169844 20.56° C 75% 1015.2 hPa 0 mm - - -
1788167757 19.44° C 78% 1015.3 hPa 0 mm - - -
1788167135 19.44° C 78% 1015.2 hPa 0 mm - - -
1788166532 19.44° C 80% 1015.2 hPa 0 mm - - -
1788165932 19.44° C 81% 1015.2 hPa 0 mm - - -
1788165329 18.89° C 80% 1015.1 hPa 0 mm - - -
1788164729 18.89° C 82% 1015.1 hPa 0 mm - - -
1788164125 18.89° C 84% 1014.9 hPa 0 mm - - -
1788163523 18.89° C 87% 1015 hPa 0 mm - - -
1788162921 18.33° C 88% 1014.9 hPa 0 mm - - -
1788162320 18.33° C 89% 1015.1 hPa 0 mm - - -
1788161717 18.33° C 91% 1015.1 hPa 0 mm - - -
1788161115 18.33° C 92% 1015 hPa 0 mm - - -
1788160514 18.33° C 92% 1015 hPa 0 mm - - -
1788159911 18.33° C 92% 1014.9 hPa 0 mm - - -
1788159029 17.78° C 92% 1014.9 hPa 0 mm - - -
1788158406 17.78° C 92% 1014.9 hPa 0 mm - - -
1788157513 17.78° C 92% 1014.8 hPa 0 mm - - -
1788156901 17.78° C 92% 1014.8 hPa 0 mm - - -
1788156300 17.78° C 92% 1014.7 hPa 0 mm - - -

* Rain latest hour (hover to see other rain measurements)
** Current wind speed in m/s (hover to see current wind gust speed)